createdAt,value
2023-05-17T00:00:25.650Z,86.94
2023-05-17T00:02:27.145Z,87.15
2023-05-17T00:04:28.794Z,87.87
2023-05-17T00:06:31.867Z,88.12
2023-05-17T00:08:33.448Z,87.22
2023-05-17T00:10:35.111Z,87.31
2023-05-17T00:12:36.621Z,86.66
2023-05-17T00:14:38.142Z,86.16
2023-05-17T00:16:39.987Z,86.23
2023-05-17T00:18:41.624Z,86.52
2023-05-17T00:20:43.249Z,86.90
2023-05-17T00:22:46.111Z,85.49
2023-05-17T00:24:47.580Z,85.42
2023-05-17T00:26:49.103Z,85.67
2023-05-17T00:28:50.644Z,84.94
2023-05-17T00:30:52.195Z,83.82
2023-05-17T00:32:53.799Z,83.55
2023-05-17T00:34:55.422Z,83.85
2023-05-17T00:36:57.059Z,83.65
2023-05-17T00:38:58.574Z,83.72
2023-05-17T00:41:00.054Z,83.94
2023-05-17T00:43:01.546Z,83.98
2023-05-17T00:45:03.328Z,83.07
2023-05-17T00:47:04.994Z,83.03
2023-05-17T00:49:06.770Z,83.09
2023-05-17T00:51:08.504Z,82.80
2023-05-17T00:53:16.130Z,83.28
2023-05-17T00:55:19.743Z,82.88
2023-05-17T00:57:21.470Z,82.40
2023-05-17T00:59:23.407Z,82.74
2023-05-17T01:01:26.272Z,82.84
2023-05-17T01:03:28.186Z,82.71
2023-05-17T01:05:30.792Z,83.36
2023-05-17T01:07:32.450Z,83.35
2023-05-17T01:09:34.141Z,83.10
2023-05-17T01:11:52.920Z,82.73
2023-05-17T01:14:15.188Z,82.01
2023-05-17T01:16:25.700Z,81.96
2023-05-17T01:18:39.584Z,82.68
2023-05-17T01:20:43.994Z,82.18
2023-05-17T01:22:53.628Z,82.34
2023-05-17T01:25:12.251Z,82.25
2023-05-17T01:27:16.031Z,81.96
2023-05-17T01:29:23.131Z,82.55
2023-05-17T01:31:25.972Z,81.86
2023-05-17T01:33:27.781Z,81.63
2023-05-17T01:35:29.662Z,81.66
2023-05-17T01:37:31.490Z,81.85
2023-05-17T01:39:33.092Z,81.92
2023-05-17T01:41:40.265Z,82.20
2023-05-17T01:43:50.597Z,82.52
2023-05-17T01:46:12.725Z,82.96
2023-05-17T01:48:21.507Z,82.64
2023-05-17T01:50:24.451Z,82.93
2023-05-17T01:52:38.112Z,82.46
2023-05-17T01:55:04.174Z,82.54
2023-05-17T01:57:07.674Z,82.79
2023-05-17T01:59:11.582Z,82.22
2023-05-17T02:01:16.075Z,82.87
2023-05-17T02:03:18.706Z,82.80
2023-05-17T02:05:20.360Z,82.42
2023-05-17T02:07:21.919Z,82.63
2023-05-17T02:09:23.457Z,82.53
2023-05-17T02:11:24.975Z,83.38
2023-05-17T02:13:26.481Z,83.12
2023-05-17T02:15:28.114Z,82.95
2023-05-17T02:17:29.804Z,83.07
2023-05-17T02:19:32.193Z,83.49
2023-05-17T02:21:33.708Z,83.29
2023-05-17T02:23:35.857Z,83.49
2023-05-17T02:25:37.343Z,84.17
2023-05-17T02:27:38.928Z,83.93
2023-05-17T02:29:40.428Z,83.87
2023-05-17T02:31:41.987Z,84.04
2023-05-17T02:33:43.603Z,84.08
2023-05-17T02:35:45.165Z,84.05
2023-05-17T02:37:46.677Z,83.90
2023-05-17T02:39:48.259Z,84.52
2023-05-17T02:41:49.723Z,84.74
2023-05-17T02:43:51.319Z,84.65
2023-05-17T02:45:52.838Z,84.55
2023-05-17T02:47:54.394Z,84.32
2023-05-17T02:49:56.123Z,84.43
2023-05-17T02:51:57.596Z,83.98
2023-05-17T02:53:59.091Z,83.92
2023-05-17T02:56:00.644Z,84.00
2023-05-17T02:58:02.182Z,84.09
2023-05-17T03:00:04.124Z,83.53
2023-05-17T03:02:05.784Z,83.65
2023-05-17T03:04:07.405Z,83.45
2023-05-17T03:06:08.974Z,82.83
2023-05-17T03:08:10.455Z,82.63
2023-05-17T03:10:11.987Z,82.08
2023-05-17T03:12:13.462Z,81.92
2023-05-17T03:14:14.932Z,81.75
2023-05-17T03:16:16.389Z,81.83
2023-05-17T03:18:18.052Z,81.65
2023-05-17T03:20:19.622Z,81.40
2023-05-17T03:22:21.138Z,81.31
2023-05-17T03:24:22.644Z,81.78
2023-05-17T03:26:24.975Z,81.42
2023-05-17T03:28:26.489Z,81.50
2023-05-17T03:30:28.105Z,81.75
2023-05-17T03:32:29.840Z,81.70
2023-05-17T03:34:31.407Z,82.12
2023-05-17T03:36:34.837Z,82.04
2023-05-17T03:38:36.856Z,82.10
2023-05-17T03:40:38.393Z,82.01
2023-05-17T03:42:39.876Z,82.45
2023-05-17T03:44:41.373Z,82.31
2023-05-17T03:46:42.927Z,82.66
2023-05-17T03:48:44.407Z,83.06
2023-05-17T03:50:46.084Z,83.20
2023-05-17T03:52:47.565Z,83.29
2023-05-17T03:54:49.112Z,83.30
2023-05-17T03:56:50.627Z,83.44
2023-05-17T03:58:52.366Z,83.96
2023-05-17T04:00:53.859Z,83.39
2023-05-17T04:02:55.502Z,83.09
2023-05-17T04:04:57.072Z,83.17
2023-05-17T04:06:58.646Z,82.85
2023-05-17T04:09:00.151Z,83.24
2023-05-17T04:11:10.633Z,82.94
2023-05-17T04:13:12.224Z,82.33
2023-05-17T04:15:13.768Z,82.40
2023-05-17T04:17:16.864Z,82.01
2023-05-17T04:19:18.677Z,82.31
2023-05-17T04:21:20.731Z,81.61
2023-05-17T04:23:22.308Z,81.84
2023-05-17T04:25:24.646Z,80.95
2023-05-17T04:27:26.241Z,80.37
2023-05-17T04:29:27.715Z,80.39
2023-05-17T04:31:32.593Z,79.48
2023-05-17T04:33:34.511Z,78.61
2023-05-17T04:35:37.711Z,78.56
2023-05-17T04:37:40.261Z,78.34
2023-05-17T04:39:41.802Z,77.10
2023-05-17T04:41:43.324Z,77.19
2023-05-17T04:43:44.942Z,77.31
2023-05-17T04:45:46.839Z,76.28
2023-05-17T04:47:50.353Z,75.46
2023-05-17T04:49:51.949Z,74.57
2023-05-17T04:51:53.432Z,73.75
2023-05-17T04:53:54.922Z,72.47
2023-05-17T04:55:57.525Z,72.61
2023-05-17T04:57:59.005Z,72.53
2023-05-17T05:00:05.403Z,72.86
2023-05-17T05:02:07.565Z,72.77
2023-05-17T05:04:09.155Z,72.49
2023-05-17T05:06:14.530Z,72.06
2023-05-17T05:08:16.131Z,72.79
2023-05-17T05:10:17.762Z,72.85
2023-05-17T05:12:19.322Z,72.65
2023-05-17T05:14:20.793Z,71.97
2023-05-17T05:16:22.362Z,71.64
2023-05-17T05:18:23.928Z,71.28
2023-05-17T05:20:27.835Z,71.50
2023-05-17T05:22:29.681Z,71.21
2023-05-17T05:24:31.181Z,71.53
2023-05-17T05:26:32.955Z,71.40
2023-05-17T05:28:34.453Z,70.93
2023-05-17T05:30:36.290Z,70.99
2023-05-17T05:32:40.590Z,70.85
2023-05-17T05:34:42.194Z,70.78
2023-05-17T05:36:44.131Z,70.06
2023-05-17T05:38:45.642Z,69.69
2023-05-17T05:40:48.252Z,69.70
2023-05-17T05:42:49.826Z,68.77
2023-05-17T05:44:51.281Z,69.02
2023-05-17T05:46:52.819Z,68.32
2023-05-17T05:48:54.352Z,67.19
2023-05-17T05:50:55.860Z,66.25
2023-05-17T05:53:14.489Z,65.64
2023-05-17T05:55:19.476Z,65.28
2023-05-17T05:57:21.009Z,65.03
2023-05-17T05:59:22.485Z,65.59
2023-05-17T06:01:25.275Z,66.12
2023-05-17T06:03:26.876Z,66.20
2023-05-17T06:05:28.624Z,66.54
2023-05-17T06:07:30.211Z,66.86
2023-05-17T06:09:31.700Z,65.62
2023-05-17T06:11:33.241Z,65.76
2023-05-17T06:13:34.867Z,66.59
2023-05-17T06:15:36.624Z,66.96
2023-05-17T06:17:38.225Z,66.75
2023-05-17T06:19:39.947Z,66.08
2023-05-17T06:21:41.564Z,66.48
2023-05-17T06:23:43.033Z,65.36
2023-05-17T06:25:44.560Z,64.18
2023-05-17T06:27:46.240Z,64.06
2023-05-17T06:29:47.797Z,63.83
2023-05-17T06:31:49.390Z,62.95
2023-05-17T06:33:50.929Z,63.63
2023-05-17T06:35:56.336Z,63.65
2023-05-17T06:37:58.859Z,61.49
2023-05-17T06:40:14.816Z,61.37
2023-05-17T06:42:17.427Z,62.14
2023-05-17T06:44:19.028Z,60.95
2023-05-17T06:46:20.564Z,60.45
2023-05-17T06:48:22.242Z,61.10
2023-05-17T06:50:23.786Z,61.43
2023-05-17T06:52:25.490Z,60.27
2023-05-17T06:54:26.971Z,60.54
2023-05-17T06:56:28.784Z,60.58
2023-05-17T06:58:30.302Z,59.43
2023-05-17T07:00:32.581Z,61.08
2023-05-17T07:02:34.894Z,61.21
2023-05-17T07:04:36.707Z,61.16
2023-05-17T07:06:38.323Z,61.01
2023-05-17T07:08:40.556Z,60.95
2023-05-17T07:10:42.204Z,61.92
2023-05-17T07:12:43.718Z,62.72
2023-05-17T07:14:45.212Z,66.20
2023-05-17T07:16:47.930Z,67.04
2023-05-17T07:18:49.468Z,66.89
2023-05-17T07:20:50.992Z,66.83
2023-05-17T07:22:52.505Z,67.55
2023-05-17T07:24:54.020Z,68.96
2023-05-17T07:26:55.612Z,68.27
2023-05-17T07:28:57.137Z,68.84
2023-05-17T07:30:58.706Z,68.54
2023-05-17T07:33:00.596Z,66.73
2023-05-17T07:35:03.099Z,66.77
2023-05-17T07:37:04.919Z,65.97
2023-05-17T07:39:06.490Z,65.49
2023-05-17T07:41:09.725Z,64.09
2023-05-17T07:43:11.417Z,62.60
2023-05-17T07:45:13.034Z,62.70
2023-05-17T07:47:14.922Z,63.11
2023-05-17T07:49:16.513Z,63.38
2023-05-17T07:51:18.147Z,61.08
2023-05-17T07:53:19.607Z,62.16
2023-05-17T07:55:21.443Z,61.21
2023-05-17T07:57:22.940Z,62.04
2023-05-17T07:59:24.764Z,61.99
2023-05-17T08:01:26.793Z,60.49
2023-05-17T08:03:28.743Z,59.67
2023-05-17T08:05:30.732Z,62.51
2023-05-17T08:07:32.427Z,58.55
2023-05-17T08:09:33.913Z,56.95
2023-05-17T08:11:35.449Z,57.96
2023-05-17T08:13:37.335Z,58.93
2023-05-17T08:15:38.820Z,57.66
2023-05-17T08:17:40.405Z,57.50
2023-05-17T08:19:42.100Z,58.52
2023-05-17T08:21:44.384Z,58.32
2023-05-17T08:23:46.314Z,58.62
2023-05-17T08:25:47.856Z,59.22
2023-05-17T08:27:49.333Z,59.86
2023-05-17T08:29:51.802Z,59.33
2023-05-17T08:31:54.847Z,62.27
2023-05-17T08:33:56.356Z,63.60
2023-05-17T08:36:00.940Z,64.91
2023-05-17T08:38:02.503Z,63.55
2023-05-17T08:40:06.410Z,61.11
2023-05-17T08:42:08.431Z,62.21
2023-05-17T08:44:11.328Z,57.54
2023-05-17T08:46:14.639Z,55.52
2023-05-17T08:48:17.568Z,57.11
2023-05-17T08:50:19.297Z,57.26
2023-05-17T08:52:21.883Z,57.92
2023-05-17T08:54:23.382Z,59.02
2023-05-17T08:56:26.553Z,58.77
2023-05-17T08:58:32.482Z,58.66
2023-05-17T09:00:38.212Z,55.38
2023-05-17T09:02:42.766Z,55.02
2023-05-17T09:04:44.993Z,58.65
2023-05-17T09:06:47.080Z,53.74
2023-05-17T09:08:52.766Z,51.32
2023-05-17T09:10:54.495Z,52.79
2023-05-17T09:12:56.374Z,52.05
2023-05-17T09:15:12.846Z,51.90
2023-05-17T09:17:18.531Z,52.12
2023-05-17T09:19:20.121Z,52.79
2023-05-17T09:21:23.712Z,56.30
2023-05-17T09:23:25.219Z,59.46
2023-05-17T09:25:26.942Z,56.31
2023-05-17T09:27:31.655Z,54.85
2023-05-17T09:29:34.051Z,57.81
2023-05-17T09:31:35.985Z,59.48
2023-05-17T09:33:47.799Z,59.82
2023-05-17T09:35:49.421Z,55.08
2023-05-17T09:37:51.174Z,56.25
2023-05-17T09:39:54.944Z,54.16
2023-05-17T09:41:57.130Z,53.35
2023-05-17T09:44:01.102Z,54.06
2023-05-17T09:46:02.596Z,52.38
2023-05-17T09:48:17.600Z,51.71
2023-05-17T09:50:23.799Z,52.60
2023-05-17T09:52:37.030Z,54.30
2023-05-17T09:54:41.269Z,54.39
2023-05-17T09:56:43.214Z,54.10
2023-05-17T09:58:44.873Z,54.69
2023-05-17T10:00:52.220Z,54.90
2023-05-17T10:02:53.856Z,54.22
2023-05-17T10:04:57.234Z,57.03
2023-05-17T10:07:00.293Z,54.61
2023-05-17T10:09:02.405Z,54.95
2023-05-17T10:11:08.566Z,58.72
2023-05-17T10:13:15.689Z,55.82
2023-05-17T10:15:18.505Z,55.84
2023-05-17T10:17:20.388Z,56.63
2023-05-17T10:19:23.797Z,57.32
2023-05-17T10:21:25.935Z,58.94
2023-05-17T10:23:27.915Z,57.84
2023-05-17T10:25:30.204Z,57.46
2023-05-17T10:27:32.134Z,56.44
2023-05-17T10:29:37.014Z,56.74
2023-05-17T10:31:43.162Z,56.48
2023-05-17T10:33:50.630Z,58.09
2023-05-17T10:35:53.301Z,59.47
2023-05-17T10:37:54.868Z,60.17
2023-05-17T10:39:57.074Z,60.86
2023-05-17T10:42:13.577Z,60.68
2023-05-17T10:44:16.776Z,61.93
2023-05-17T10:46:22.699Z,60.98
2023-05-17T10:48:28.466Z,60.30
2023-05-17T10:50:30.457Z,59.65
2023-05-17T10:52:32.187Z,60.11
2023-05-17T10:54:39.329Z,59.59
2023-05-17T10:56:47.480Z,59.01
2023-05-17T10:59:08.940Z,56.98
2023-05-17T11:01:11.216Z,55.94
2023-05-17T11:03:30.770Z,56.35
2023-05-17T11:05:32.669Z,56.34
2023-05-17T11:07:37.479Z,56.41
2023-05-17T11:09:40.668Z,57.81
2023-05-17T11:12:05.424Z,58.35
2023-05-17T11:14:11.485Z,59.39
2023-05-17T11:16:19.020Z,60.48
2023-05-17T11:18:30.116Z,60.37
2023-05-17T11:20:35.068Z,60.09
2023-05-17T11:22:39.992Z,58.24
2023-05-17T11:24:44.543Z,59.23
2023-05-17T11:26:46.393Z,62.55
2023-05-17T11:28:48.201Z,60.59
2023-05-17T11:30:53.699Z,57.13
2023-05-17T11:33:02.959Z,55.10
2023-05-17T11:35:05.462Z,53.34
2023-05-17T11:37:11.948Z,61.14
2023-05-17T11:39:17.202Z,55.46
2023-05-17T11:43:31.188Z,56.62
2023-05-17T11:45:42.342Z,56.09
2023-05-17T11:47:48.284Z,56.80
2023-05-17T11:49:54.352Z,52.74
2023-05-17T11:51:57.801Z,53.74
2023-05-17T11:54:03.445Z,57.99
2023-05-17T11:56:05.679Z,61.45
2023-05-17T11:58:11.959Z,53.34
2023-05-17T12:00:14.108Z,54.63
2023-05-17T12:02:30.073Z,48.27
2023-05-17T12:04:37.452Z,49.15
2023-05-17T12:06:39.990Z,48.22
2023-05-17T12:08:46.769Z,49.60
2023-05-17T12:10:52.619Z,57.85
2023-05-17T12:12:54.205Z,48.56
2023-05-17T12:14:55.957Z,47.35
2023-05-17T12:17:00.816Z,48.80
2023-05-17T12:19:02.609Z,49.63
2023-05-17T12:21:05.876Z,49.10
2023-05-17T12:23:07.382Z,49.26
2023-05-17T12:25:20.061Z,55.81
2023-05-17T12:27:27.642Z,51.30
2023-05-17T12:29:30.225Z,52.61
2023-05-17T12:31:36.638Z,52.89
2023-05-17T12:33:43.284Z,54.53
2023-05-17T12:35:45.449Z,54.90
2023-05-17T12:37:47.263Z,54.96
2023-05-17T12:39:49.107Z,55.46
2023-05-17T12:41:52.097Z,55.99
2023-05-17T12:44:06.259Z,55.69
2023-05-17T12:46:20.501Z,55.15
2023-05-17T12:48:26.525Z,60.79
2023-05-17T12:50:31.781Z,66.24
2023-05-17T12:52:35.178Z,57.39
2023-05-17T12:54:39.450Z,62.50
2023-05-17T12:56:44.817Z,63.07
2023-05-17T12:59:12.256Z,66.27
2023-05-17T13:01:14.727Z,66.21
2023-05-17T13:03:16.363Z,64.52
2023-05-17T13:05:21.432Z,64.07
2023-05-17T13:07:24.239Z,63.08
2023-05-17T13:09:30.785Z,63.53
2023-05-17T13:11:32.452Z,62.18
2023-05-17T13:13:34.295Z,61.92
2023-05-17T13:15:36.061Z,58.66
2023-05-17T13:17:40.585Z,59.06
2023-05-17T13:19:42.778Z,53.23
2023-05-17T13:21:44.382Z,58.26
2023-05-17T13:23:50.077Z,55.18
2023-05-17T13:25:51.706Z,54.25
2023-05-17T13:27:55.358Z,54.47
2023-05-17T13:29:56.863Z,59.17
2023-05-17T13:31:58.365Z,59.64
2023-05-17T13:34:00.033Z,59.01
2023-05-17T13:36:01.642Z,64.61
2023-05-17T13:38:03.195Z,64.93
2023-05-17T13:40:05.242Z,64.77
2023-05-17T13:42:06.828Z,63.89
2023-05-17T13:44:08.907Z,52.52
2023-05-17T13:46:10.511Z,51.55
2023-05-17T13:48:12.163Z,51.57
2023-05-17T13:50:17.228Z,49.97
2023-05-17T13:52:18.937Z,54.58
2023-05-17T13:54:20.793Z,51.56
2023-05-17T13:56:23.697Z,57.19
2023-05-17T13:58:25.273Z,55.94
2023-05-17T14:00:27.021Z,57.09
2023-05-17T14:02:28.639Z,56.02
2023-05-17T14:04:30.207Z,54.07
2023-05-17T14:06:31.823Z,54.74
2023-05-17T14:08:34.184Z,50.43
2023-05-17T14:10:36.480Z,49.55
2023-05-17T14:12:38.789Z,48.68
2023-05-17T14:14:40.304Z,48.29
2023-05-17T14:16:41.866Z,59.57
2023-05-17T14:18:43.565Z,62.53
2023-05-17T14:20:45.192Z,51.63
2023-05-17T14:22:46.708Z,54.59
2023-05-17T14:24:48.249Z,51.71
2023-05-17T14:26:49.761Z,49.77
2023-05-17T14:28:51.391Z,49.30
2023-05-17T14:30:53.290Z,50.18
2023-05-17T14:32:54.867Z,53.17
2023-05-17T14:34:56.465Z,51.31
2023-05-17T14:36:57.945Z,52.46
2023-05-17T14:38:59.523Z,55.14
2023-05-17T14:41:02.253Z,59.55
2023-05-17T14:43:03.894Z,60.54
2023-05-17T14:45:06.681Z,51.65
2023-05-17T14:47:08.545Z,52.24
2023-05-17T14:49:10.282Z,55.59
2023-05-17T14:51:12.261Z,52.62
2023-05-17T14:53:13.831Z,54.53
2023-05-17T14:55:16.819Z,59.69
2023-05-17T14:57:18.716Z,61.05
2023-05-17T14:59:20.591Z,56.52
2023-05-17T15:01:22.520Z,63.54
2023-05-17T15:03:24.052Z,65.60
2023-05-17T15:05:25.778Z,65.92
2023-05-17T15:07:27.445Z,54.61
2023-05-17T15:09:30.959Z,54.13
2023-05-17T15:11:33.679Z,54.69
2023-05-17T15:13:35.199Z,57.59
2023-05-17T15:15:36.809Z,54.73
2023-05-17T15:17:38.435Z,54.72
2023-05-17T15:19:40.057Z,56.16
2023-05-17T15:21:42.681Z,56.19
2023-05-17T15:23:44.478Z,55.76
2023-05-17T15:25:46.439Z,57.14
2023-05-17T15:27:49.127Z,55.69
2023-05-17T15:29:50.596Z,56.49
2023-05-17T15:31:52.250Z,64.19
2023-05-17T15:33:53.902Z,57.51
2023-05-17T15:35:55.531Z,57.14
2023-05-17T15:37:59.347Z,59.11
2023-05-17T15:40:10.814Z,58.11
2023-05-17T15:42:12.308Z,59.79
2023-05-17T15:44:13.876Z,57.64
2023-05-17T15:46:15.442Z,55.78
2023-05-17T15:48:17.992Z,55.64
2023-05-17T15:50:19.577Z,57.33
2023-05-17T15:52:21.052Z,58.34
2023-05-17T15:54:22.529Z,56.62
2023-05-17T15:56:24.429Z,59.67
2023-05-17T15:58:32.910Z,65.17
2023-05-17T16:00:34.416Z,66.02
2023-05-17T16:02:36.131Z,66.00
2023-05-17T16:04:37.939Z,65.75
2023-05-17T16:06:39.732Z,64.40
2023-05-17T16:08:41.932Z,60.39
2023-05-17T16:10:44.071Z,55.41
2023-05-17T16:12:47.361Z,55.11
2023-05-17T16:14:48.914Z,55.31
2023-05-17T16:16:51.222Z,55.54
2023-05-17T16:18:52.863Z,59.43
2023-05-17T16:21:03.653Z,57.77
2023-05-17T16:23:06.077Z,62.86
2023-05-17T16:25:07.715Z,65.47
2023-05-17T16:27:09.365Z,65.81
2023-05-17T16:29:13.565Z,65.35
2023-05-17T16:31:15.188Z,65.63
2023-05-17T16:33:16.814Z,65.44
2023-05-17T16:35:22.168Z,66.29
2023-05-17T16:37:23.829Z,65.97
2023-05-17T16:39:27.148Z,62.92
2023-05-17T16:41:31.301Z,60.08
2023-05-17T16:43:32.924Z,63.79
2023-05-17T16:45:34.725Z,66.29
2023-05-17T16:47:36.445Z,64.65
2023-05-17T16:49:38.686Z,61.77
2023-05-17T16:51:40.333Z,59.57
2023-05-17T16:53:42.126Z,62.07
2023-05-17T16:55:43.718Z,57.32
2023-05-17T16:57:45.233Z,58.50
2023-05-17T16:59:46.696Z,56.59
2023-05-17T17:01:48.253Z,57.64
2023-05-17T17:03:49.884Z,57.91
2023-05-17T17:05:51.449Z,58.35
2023-05-17T17:07:53.311Z,57.86
2023-05-17T17:09:54.791Z,59.99
2023-05-17T17:11:56.307Z,61.95
2023-05-17T17:13:58.668Z,56.94
2023-05-17T17:16:00.270Z,57.53
2023-05-17T17:18:02.007Z,55.79
2023-05-17T17:20:09.055Z,55.71
2023-05-17T17:22:12.101Z,56.80
2023-05-17T17:24:13.706Z,56.40
2023-05-17T17:26:15.996Z,55.88
2023-05-17T17:28:17.506Z,55.08
2023-05-17T17:30:19.113Z,54.08
2023-05-17T17:32:20.674Z,53.51
2023-05-17T17:34:22.206Z,57.14
2023-05-17T17:36:27.040Z,62.96
2023-05-17T17:38:28.605Z,63.21
2023-05-17T17:40:30.507Z,54.97
2023-05-17T17:42:32.409Z,53.14
2023-05-17T17:44:33.904Z,55.93
2023-05-17T17:46:35.528Z,57.66
2023-05-17T17:48:37.119Z,58.36
2023-05-17T17:50:38.648Z,57.13
2023-05-17T17:52:40.219Z,55.77
2023-05-17T17:54:42.486Z,55.94
2023-05-17T17:56:45.485Z,56.43
2023-05-17T17:58:48.143Z,59.27
2023-05-17T18:00:49.686Z,59.77
2023-05-17T18:02:51.466Z,60.63
2023-05-17T18:04:53.097Z,59.66
2023-05-17T18:06:55.001Z,58.95
2023-05-17T18:08:57.791Z,58.97
2023-05-17T18:10:59.309Z,63.02
2023-05-17T18:13:00.976Z,61.34
2023-05-17T18:15:02.738Z,61.81
2023-05-17T18:17:04.497Z,66.44
2023-05-17T18:19:06.122Z,60.26
2023-05-17T18:21:09.279Z,56.64
2023-05-17T18:23:10.938Z,56.91
2023-05-17T18:25:12.465Z,57.67
2023-05-17T18:27:14.308Z,58.69
2023-05-17T18:29:15.873Z,59.64
2023-05-17T18:31:18.515Z,57.86
2023-05-17T18:33:20.417Z,58.38
2023-05-17T18:35:22.046Z,59.67
2023-05-17T18:37:23.601Z,62.26
2023-05-17T18:39:25.117Z,58.40
2023-05-17T18:41:27.154Z,57.71
2023-05-17T18:43:31.080Z,57.89
2023-05-17T18:45:36.256Z,57.27
2023-05-17T18:47:37.833Z,58.79
2023-05-17T18:49:44.944Z,57.34
2023-05-17T18:51:46.696Z,62.12
2023-05-17T18:53:48.230Z,61.71
2023-05-17T18:55:49.751Z,61.83
2023-05-17T18:57:51.269Z,60.92
2023-05-17T18:59:52.829Z,60.58
2023-05-17T19:01:54.435Z,59.61
2023-05-17T19:03:56.482Z,64.55
2023-05-17T19:05:58.084Z,66.46
2023-05-17T19:07:59.772Z,66.51
2023-05-17T19:10:01.655Z,67.36
2023-05-17T19:12:03.515Z,67.06
2023-05-17T19:14:05.801Z,66.93
2023-05-17T19:16:07.626Z,66.58
2023-05-17T19:18:09.140Z,66.83
2023-05-17T19:20:11.050Z,66.59
2023-05-17T19:22:12.962Z,66.70
2023-05-17T19:24:14.537Z,65.36
2023-05-17T19:26:16.212Z,63.58
2023-05-17T19:28:18.044Z,65.73
2023-05-17T19:30:19.527Z,64.87
2023-05-17T19:32:22.755Z,64.76
2023-05-17T19:34:24.323Z,62.96
2023-05-17T19:36:25.964Z,60.07
2023-05-17T19:38:27.514Z,60.65
2023-05-17T19:40:29.198Z,62.44
2023-05-17T19:42:30.915Z,61.97
2023-05-17T19:44:32.574Z,60.81
2023-05-17T19:46:34.195Z,63.31
2023-05-17T19:48:36.000Z,64.82
2023-05-17T19:50:37.723Z,64.97
2023-05-17T19:52:39.394Z,64.88
2023-05-17T19:54:41.152Z,63.96
2023-05-17T19:56:42.666Z,62.94
2023-05-17T19:58:44.205Z,61.58
2023-05-17T20:00:45.866Z,60.41
2023-05-17T20:02:47.474Z,61.78
2023-05-17T20:04:49.210Z,63.83
2023-05-17T20:06:51.130Z,62.08
2023-05-17T20:08:52.633Z,64.20
2023-05-17T20:10:54.169Z,66.06
2023-05-17T20:12:56.025Z,66.26
2023-05-17T20:14:57.698Z,66.23
2023-05-17T20:16:59.373Z,65.96
2023-05-17T20:19:01.153Z,65.74
2023-05-17T20:21:02.797Z,65.99
2023-05-17T20:23:04.297Z,66.26
2023-05-17T20:25:06.032Z,65.50
2023-05-17T20:27:07.574Z,65.83
2023-05-17T20:29:09.249Z,66.06
2023-05-17T20:31:11.104Z,65.87
2023-05-17T20:33:12.704Z,65.90
2023-05-17T20:35:14.269Z,66.21
2023-05-17T20:37:15.840Z,65.82
2023-05-17T20:39:17.384Z,65.26
2023-05-17T20:41:19.488Z,64.89
2023-05-17T20:43:21.124Z,63.85
2023-05-17T20:45:22.845Z,64.05
2023-05-17T20:47:24.737Z,63.73
2023-05-17T20:49:26.312Z,63.10
2023-05-17T20:51:27.820Z,62.26
2023-05-17T20:53:30.410Z,62.60
2023-05-17T20:55:31.936Z,63.13
2023-05-17T20:57:33.432Z,63.14
2023-05-17T20:59:34.943Z,64.29
2023-05-17T21:01:37.334Z,64.46
2023-05-17T21:03:39.986Z,63.42
2023-05-17T21:05:41.885Z,63.61
2023-05-17T21:07:43.394Z,62.84
2023-05-17T21:09:44.883Z,63.25
2023-05-17T21:11:46.412Z,63.50
2023-05-17T21:13:51.309Z,62.72
2023-05-17T21:15:56.381Z,62.02
2023-05-17T21:17:57.986Z,62.43
2023-05-17T21:19:59.510Z,63.75
2023-05-17T21:22:01.025Z,65.52
2023-05-17T21:24:02.983Z,65.40
2023-05-17T21:26:06.740Z,64.88
2023-05-17T21:28:08.481Z,65.02
2023-05-17T21:30:10.451Z,65.51
2023-05-17T21:32:11.941Z,65.00
2023-05-17T21:34:13.496Z,65.22
2023-05-17T21:36:15.046Z,65.18
2023-05-17T21:38:16.637Z,65.37
2023-05-17T21:40:19.384Z,66.00
2023-05-17T21:42:21.353Z,65.37
2023-05-17T21:44:22.918Z,65.57
2023-05-17T21:46:24.628Z,65.82
2023-05-17T21:48:26.217Z,66.18
2023-05-17T21:50:28.037Z,65.96
2023-05-17T21:52:29.847Z,66.29
2023-05-17T21:54:31.391Z,65.69
2023-05-17T21:56:33.054Z,66.29
2023-05-17T21:58:34.574Z,66.40
2023-05-17T22:00:36.381Z,65.97
2023-05-17T22:02:38.157Z,66.53
2023-05-17T22:04:41.028Z,66.59
2023-05-17T22:06:42.817Z,66.00
2023-05-17T22:08:45.223Z,66.44
2023-05-17T22:10:47.527Z,66.50
2023-05-17T22:12:50.241Z,66.44
2023-05-17T22:14:53.636Z,66.27
2023-05-17T22:16:56.031Z,66.38
2023-05-17T22:19:00.361Z,66.72
2023-05-17T22:21:01.892Z,66.29
2023-05-17T22:23:04.294Z,66.33
2023-05-17T22:25:06.880Z,66.40
2023-05-17T22:27:08.451Z,66.58
2023-05-17T22:29:10.111Z,66.51
2023-05-17T22:31:14.699Z,66.24
2023-05-17T22:33:16.316Z,66.04
2023-05-17T22:35:17.828Z,65.90
2023-05-17T22:37:22.592Z,66.22
2023-05-17T22:39:24.279Z,65.97
2023-05-17T22:41:26.557Z,65.65
2023-05-17T22:43:28.109Z,65.43
2023-05-17T22:45:33.099Z,65.55
2023-05-17T22:47:35.279Z,65.06
2023-05-17T22:49:36.895Z,64.62
2023-05-17T22:51:38.921Z,64.95
2023-05-17T22:53:40.445Z,65.16
2023-05-17T22:55:48.546Z,65.28
2023-05-17T22:57:50.071Z,64.72
2023-05-17T22:59:51.562Z,65.27
2023-05-17T23:01:53.161Z,64.89
2023-05-17T23:03:54.712Z,64.52
2023-05-17T23:06:02.840Z,64.71
2023-05-17T23:08:05.381Z,64.67
2023-05-17T23:10:10.973Z,64.83
2023-05-17T23:12:14.483Z,65.00
2023-05-17T23:14:17.454Z,64.65
2023-05-17T23:16:19.044Z,63.95
2023-05-17T23:18:20.787Z,64.90
2023-05-17T23:20:23.503Z,64.61
2023-05-17T23:22:31.218Z,64.84
2023-05-17T23:24:38.416Z,65.14
2023-05-17T23:26:41.991Z,64.89
2023-05-17T23:28:44.057Z,64.56
2023-05-17T23:30:48.729Z,64.28
2023-05-17T23:32:51.330Z,64.94
2023-05-17T23:35:03.410Z,64.40
2023-05-17T23:37:04.989Z,64.64
2023-05-17T23:39:06.724Z,64.69
2023-05-17T23:41:08.412Z,64.12
2023-05-17T23:43:10.352Z,64.31
2023-05-17T23:45:11.905Z,64.36
2023-05-17T23:47:13.399Z,64.01
2023-05-17T23:49:16.514Z,64.47
2023-05-17T23:51:19.850Z,65.00
2023-05-17T23:53:23.502Z,64.79
2023-05-17T23:55:25.116Z,64.85
2023-05-17T23:57:26.619Z,64.18
2023-05-17T23:59:29.486Z,64.52
